Time;durP1;ratioP1;P1;durP2;ratioP2;P2;SDS_P1;SDS_P2;PMS_P1;PMS_P2;Temp;Humidity;BMP_temperature;BMP_pressure;BME280_temperature;BME280_humidity;BME280_pressure;Samples;Min_cycle;Max_cycle;Signal;HPM_P1;HPM_P2
2021/01/15 00:02:21;;;;;;;14.07;13.43;;;0.70;99.90;;;;;;5094219;28;20453;-60
2021/01/15 00:04:47;;;;;;;15.17;14.30;;;0.70;99.90;;;;;;5093962;28;20470;-61
2021/01/15 00:07:13;;;;;;;14.67;13.77;;;0.70;99.90;;;;;;5094089;28;20447;-61
2021/01/15 00:09:40;;;;;;;14.10;13.43;;;0.70;99.90;;;;;;5093865;28;20439;-59
2021/01/15 00:12:06;;;;;;;14.40;13.40;;;0.60;99.90;;;;;;5094080;28;20443;-61
2021/01/15 00:14:34;;;;;;;13.47;12.77;;;0.60;99.90;;;;;;5093936;28;20471;-61
2021/01/15 00:17:00;;;;;;;15.63;14.63;;;0.60;99.90;;;;;;5093983;28;20510;-61
2021/01/15 00:19:26;;;;;;;15.00;14.20;;;0.50;99.90;;;;;;5093917;28;20442;-61
2021/01/15 00:21:52;;;;;;;16.40;15.17;;;0.50;99.90;;;;;;5093479;28;20450;-60
2021/01/15 00:24:20;;;;;;;14.80;14.00;;;0.50;99.90;;;;;;5093886;28;20458;-60
2021/01/15 00:26:47;;;;;;;14.77;13.87;;;0.40;99.90;;;;;;5093749;28;20486;-59
2021/01/15 00:29:14;;;;;;;15.00;14.10;;;0.40;99.90;;;;;;5093637;28;20932;-63
2021/01/15 00:31:43;;;;;;;14.63;13.77;;;0.30;99.90;;;;;;5093474;28;20439;-61
2021/01/15 00:34:12;;;;;;;15.33;14.43;;;0.30;99.90;;;;;;5118452;22;20478;-69
2021/01/15 00:36:39;;;;;;;15.80;14.70;;;0.30;99.90;;;;;;5073315;28;20450;-70
2021/01/15 00:39:08;;;;;;;15.80;14.90;;;0.40;99.90;;;;;;5089166;28;20442;-70
2021/01/15 00:41:34;;;;;;;14.63;13.90;;;0.40;99.90;;;;;;5093403;28;20972;-70
2021/01/15 00:44:01;;;;;;;15.17;14.20;;;0.30;99.90;;;;;;5093530;28;20507;-69
2021/01/15 00:46:31;;;;;;;14.93;14.13;;;0.20;99.90;;;;;;5093601;28;20478;-69
2021/01/15 00:48:59;;;;;;;15.70;14.73;;;0.20;99.90;;;;;;5093704;28;20442;-68
2021/01/15 00:51:25;;;;;;;16.23;15.30;;;0.30;99.90;;;;;;5093186;28;20443;-69
2021/01/15 00:53:51;;;;;;;16.17;15.17;;;0.20;99.90;;;;;;5093498;28;20438;-70
2021/01/15 00:56:18;;;;;;;15.70;14.60;;;0.10;99.90;;;;;;5093171;28;20462;-69
2021/01/15 00:58:46;;;;;;;14.87;13.93;;;0.20;99.90;;;;;;5093272;28;20442;-69
2021/01/15 01:01:13;;;;;;;15.33;14.43;;;0.10;99.90;;;;;;5093008;28;20417;-69
2021/01/15 01:03:39;;;;;;;16.03;15.13;;;0.10;99.90;;;;;;5093124;28;20442;-69
2021/01/15 01:06:11;;;;;;;16.33;15.10;;;0.10;99.90;;;;;;5092890;28;20486;-69
2021/01/15 01:08:37;;;;;;;16.00;15.20;;;0.10;99.90;;;;;;5092031;28;20811;-69
2021/01/15 01:11:04;;;;;;;14.57;13.77;;;0.00;99.90;;;;;;5092767;28;20442;-69
2021/01/15 01:13:30;;;;;;;15.63;14.67;;;0.00;99.90;;;;;;5092989;28;20819;-69
2021/01/15 01:15:56;;;;;;;14.90;14.00;;;0.00;99.90;;;;;;5092783;28;20827;-69
2021/01/15 01:18:22;;;;;;;15.10;14.17;;;0.00;99.90;;;;;;5092960;28;20951;-69
2021/01/15 01:20:49;;;;;;;14.50;13.57;;;0.00;99.90;;;;;;5092499;28;20943;-69
2021/01/15 01:23:16;;;;;;;15.27;14.37;;;-0.10;99.90;;;;;;5092836;28;20446;-70
2021/01/15 01:25:42;;;;;;;15.20;14.40;;;-0.10;99.90;;;;;;5092565;28;20489;-69
2021/01/15 01:28:08;;;;;;;14.63;13.63;;;-0.10;99.90;;;;;;5092681;28;20485;-69
2021/01/15 01:30:36;;;;;;;15.33;14.27;;;-0.20;99.90;;;;;;5092417;28;20446;-69
2021/01/15 01:33:02;;;;;;;15.70;14.70;;;-0.20;99.90;;;;;;5092734;28;20914;-70
2021/01/15 01:35:28;;;;;;;15.40;14.60;;;-0.30;99.90;;;;;;5092263;28;20820;-69
2021/01/15 01:37:55;;;;;;;15.97;14.97;;;-0.20;99.90;;;;;;5092379;28;20857;-70
2021/01/15 01:40:22;;;;;;;15.50;14.50;;;-0.20;99.90;;;;;;5092282;28;20842;-70
2021/01/15 01:42:48;;;;;;;15.80;14.80;;;-0.10;99.90;;;;;;5092352;28;20446;-69
2021/01/15 01:45:15;;;;;;;15.97;15.00;;;-0.10;99.90;;;;;;5092247;28;20482;-69
2021/01/15 01:47:41;;;;;;;16.07;14.90;;;0.10;99.90;;;;;;5092375;28;20442;-70
2021/01/15 01:50:09;;;;;;;14.87;13.97;;;0.10;99.90;;;;;;5092051;28;20835;-70
2021/01/15 01:52:36;;;;;;;15.00;14.10;;;0.20;99.90;;;;;;5092190;28;20446;-70
2021/01/15 01:55:03;;;;;;;16.10;14.90;;;0.30;99.90;;;;;;5092185;28;20466;-70
2021/01/15 01:57:30;;;;;;;14.80;14.00;;;0.30;99.90;;;;;;5092184;28;20443;-69
2021/01/15 01:59:56;;;;;;;16.80;15.73;;;0.40;99.90;;;;;;5091966;28;20445;-69
2021/01/15 02:02:23;;;;;;;16.27;15.27;;;0.50;99.90;;;;;;5092043;28;20445;-69
2021/01/15 02:04:49;;;;;;;16.33;15.20;;;0.60;99.90;;;;;;5091795;28;20469;-69
2021/01/15 02:07:16;;;;;;;17.10;16.00;;;0.70;99.90;;;;;;5091963;28;20485;-70
2021/01/15 02:09:47;;;;;;;17.50;16.10;;;0.80;99.90;;;;;;5091761;28;20855;-70
2021/01/15 02:12:25;;;;;;;17.00;15.80;;;0.90;99.90;;;;;;5091973;28;20449;-70
2021/01/15 02:15:01;;;;;;;17.03;15.93;;;0.90;99.90;;;;;;5091931;28;21036;-70
2021/01/15 02:17:35;;;;;;;17.53;16.30;;;0.90;99.90;;;;;;5091965;28;20450;-70
2021/01/15 02:20:21;;;;;;;18.83;17.20;;;1.00;99.90;;;;;;5091415;28;20458;-70
2021/01/15 02:22:58;;;;;;;18.17;16.87;;;1.00;99.90;;;;;;5091861;28;20442;-70
2021/01/15 02:26:01;;;;;;;17.83;16.43;;;1.10;99.90;;;;;;5091729;28;20873;-70
2021/01/15 02:28:46;;;;;;;18.83;17.40;;;1.10;99.90;;;;;;5091899;28;20438;-69
2021/01/15 02:31:45;;;;;;;19.37;17.90;;;1.20;99.90;;;;;;5091592;28;20438;-70
2021/01/15 02:34:26;;;;;;;19.20;17.90;;;1.30;99.90;;;;;;5065824;28;20442;-69
2021/01/15 02:36:59;;;;;;;19.80;18.27;;;1.30;99.90;;;;;;5091691;28;20437;-70
2021/01/15 02:39:37;;;;;;;18.77;17.17;;;1.40;99.90;;;;;;5091853;28;20439;-70
2021/01/15 02:42:06;;;;;;;19.57;17.93;;;1.50;99.90;;;;;;5091660;28;20946;-69
2021/01/15 02:44:35;;;;;;;20.60;18.80;;;1.50;99.90;;;;;;5091622;28;20470;-70
2021/01/15 02:47:01;;;;;;;19.33;17.77;;;1.60;99.90;;;;;;5091747;28;20998;-69
2021/01/15 02:49:29;;;;;;;19.33;17.57;;;1.70;99.90;;;;;;5091576;28;21011;-69
2021/01/15 02:51:56;;;;;;;19.20;17.70;;;1.70;99.90;;;;;;5091329;28;20446;-69
2021/01/15 02:54:23;;;;;;;20.47;18.87;;;1.80;99.90;;;;;;5091759;28;20459;-70
2021/01/15 02:56:49;;;;;;;19.10;17.80;;;1.80;99.90;;;;;;5091532;28;20434;-70
2021/01/15 02:59:16;;;;;;;20.50;18.87;;;1.90;99.90;;;;;;5091442;28;20491;-70
2021/01/15 03:01:50;;;;;;;19.13;17.77;;;1.90;99.90;;;;;;5091256;28;20438;-70
2021/01/15 03:04:28;;;;;;;19.70;18.10;;;1.90;99.90;;;;;;5091454;28;20446;-69
2021/01/15 03:06:59;;;;;;;18.60;17.10;;;2.00;99.90;;;;;;5091286;28;20485;-70
2021/01/15 03:09:30;;;;;;;20.03;18.37;;;2.00;99.90;;;;;;5091609;28;20802;-70
2021/01/15 03:12:00;;;;;;;20.00;18.43;;;2.00;99.90;;;;;;5091312;28;20438;-70
2021/01/15 03:14:28;;;;;;;21.87;20.10;;;2.10;99.90;;;;;;5091332;28;20466;-70
2021/01/15 03:16:56;;;;;;;20.33;18.73;;;2.10;99.90;;;;;;5091324;28;20461;-69
2021/01/15 03:19:22;;;;;;;20.33;18.73;;;2.10;99.90;;;;;;5091330;28;21044;-71
2021/01/15 03:21:50;;;;;;;20.57;18.63;;;2.10;99.90;;;;;;5091118;28;20460;-69
2021/01/15 03:24:18;;;;;;;19.37;17.93;;;2.20;99.90;;;;;;5091124;28;20442;-69
2021/01/15 03:26:45;;;;;;;18.90;17.60;;;2.20;99.90;;;;;;5091193;28;20874;-69
2021/01/15 03:29:13;;;;;;;19.80;18.20;;;2.20;99.90;;;;;;5091219;28;20453;-69
2021/01/15 03:31:41;;;;;;;19.97;18.27;;;2.20;99.90;;;;;;5092467;28;20453;-69
2021/01/15 03:34:07;;;;;;;20.47;18.87;;;2.30;99.90;;;;;;5094603;28;20450;-69
2021/01/15 03:36:33;;;;;;;20.77;19.27;;;2.30;99.90;;;;;;5095085;28;20438;-69
2021/01/15 03:39:00;;;;;;;18.90;17.50;;;2.30;99.90;;;;;;5094662;28;20442;-68
2021/01/15 03:41:27;;;;;;;19.13;17.77;;;2.30;99.90;;;;;;5094463;28;20567;-69
2021/01/15 03:43:54;;;;;;;21.33;19.53;;;2.30;99.90;;;;;;5094345;28;20784;-69
2021/01/15 03:46:20;;;;;;;19.07;17.47;;;2.30;99.90;;;;;;5094381;28;20993;-70
2021/01/15 03:48:46;;;;;;;19.40;18.00;;;2.30;99.90;;;;;;5094451;28;20449;-70
2021/01/15 03:51:13;;;;;;;19.93;18.53;;;2.30;99.90;;;;;;5094225;28;20924;-70
2021/01/15 03:53:44;;;;;;;18.63;17.27;;;2.40;99.90;;;;;;5094481;28;20940;-69
2021/01/15 03:56:10;;;;;;;20.03;18.73;;;2.40;99.90;;;;;;5094426;28;20462;-69
2021/01/15 03:58:37;;;;;;;20.10;18.70;;;2.40;99.90;;;;;;5094420;28;20438;-69
2021/01/15 04:01:04;;;;;;;19.73;18.30;;;2.40;99.90;;;;;;5094104;28;20444;-69
2021/01/15 04:03:30;;;;;;;19.83;18.23;;;2.40;99.90;;;;;;5094296;28;20438;-69
2021/01/15 04:05:56;;;;;;;21.17;19.20;;;2.40;99.90;;;;;;5094054;28;20482;-69
2021/01/15 04:08:22;;;;;;;21.27;19.57;;;2.40;99.90;;;;;;5094417;28;20465;-69
2021/01/15 04:10:48;;;;;;;19.90;18.30;;;2.40;99.90;;;;;;5093848;28;20799;-69
2021/01/15 04:13:15;;;;;;;19.63;18.33;;;2.40;99.90;;;;;;5094127;28;20442;-69
2021/01/15 04:15:42;;;;;;;19.77;18.37;;;2.40;99.90;;;;;;5094174;28;20473;-69
2021/01/15 04:18:08;;;;;;;20.50;19.00;;;2.40;99.90;;;;;;5093951;28;20996;-68
2021/01/15 04:20:34;;;;;;;21.33;19.63;;;2.40;99.90;;;;;;5093942;28;20925;-69
2021/01/15 04:23:00;;;;;;;23.77;21.87;;;2.40;99.90;;;;;;5093939;28;20819;-69
2021/01/15 04:25:27;;;;;;;21.43;19.83;;;2.40;99.90;;;;;;5093624;28;20486;-69
2021/01/15 04:27:53;;;;;;;19.70;18.30;;;2.40;99.90;;;;;;5093807;28;20446;-68
2021/01/15 04:30:20;;;;;;;20.00;18.43;;;2.50;99.90;;;;;;5093683;28;20439;-69
2021/01/15 04:32:48;;;;;;;20.00;18.70;;;2.40;99.90;;;;;;5093546;28;20446;-68
2021/01/15 04:35:16;;;;;;;22.30;20.60;;;2.40;99.90;;;;;;5093306;28;20471;-68
2021/01/15 04:37:42;;;;;;;21.57;19.87;;;2.50;99.90;;;;;;5093648;28;20950;-69
2021/01/15 04:40:10;;;;;;;20.80;19.30;;;2.50;99.90;;;;;;5093358;28;20486;-68
2021/01/15 04:42:41;;;;;;;22.80;20.90;;;2.50;99.90;;;;;;5093647;28;20442;-69
2021/01/15 04:45:11;;;;;;;22.73;20.80;;;2.50;99.90;;;;;;5093744;28;20458;-69
2021/01/15 04:47:42;;;;;;;23.13;21.43;;;2.50;99.90;;;;;;5093470;28;20434;-69
2021/01/15 04:50:11;;;;;;;22.20;20.50;;;2.50;99.90;;;;;;5093235;28;20438;-69
2021/01/15 04:52:45;;;;;;;21.17;19.67;;;2.50;99.90;;;;;;5093240;28;20450;-69
2021/01/15 04:55:16;;;;;;;21.57;19.63;;;2.60;99.90;;;;;;5093387;28;20990;-69
2021/01/15 04:57:45;;;;;;;22.67;20.90;;;2.60;99.90;;;;;;5093399;28;20449;-69
2021/01/15 05:00:15;;;;;;;21.57;19.87;;;2.60;99.90;;;;;;5092885;28;20449;-68
2021/01/15 05:02:45;;;;;;;22.33;20.57;;;2.60;99.90;;;;;;5093343;28;20472;-68
2021/01/15 05:05:19;;;;;;;22.50;20.60;;;2.50;99.90;;;;;;5093016;28;20816;-68
2021/01/15 05:08:08;;;;;;;26.00;23.60;;;2.50;99.90;;;;;;5093100;28;20931;-68
2021/01/15 05:10:38;;;;;;;24.77;22.40;;;2.60;99.90;;;;;;5092804;28;20457;-69
2021/01/15 05:13:07;;;;;;;25.13;23.10;;;2.50;99.90;;;;;;5092942;28;20453;-69
2021/01/15 05:15:35;;;;;;;24.97;22.73;;;2.50;99.90;;;;;;5092790;28;20457;-69
2021/01/15 05:18:04;;;;;;;26.30;23.97;;;2.50;99.90;;;;;;5092744;28;20503;-69
2021/01/15 05:20:32;;;;;;;23.53;21.73;;;2.60;99.90;;;;;;5092526;28;20439;-69
2021/01/15 05:23:01;;;;;;;25.30;23.30;;;2.60;99.90;;;;;;5092938;28;20453;-68
2021/01/15 05:25:29;;;;;;;24.07;22.17;;;2.60;99.90;;;;;;5092589;28;20473;-69
2021/01/15 05:27:55;;;;;;;26.70;24.30;;;2.60;99.90;;;;;;5092611;28;20491;-69
2021/01/15 05:30:23;;;;;;;27.63;25.23;;;2.60;99.90;;;;;;5092448;28;20445;-69
2021/01/15 05:32:51;;;;;;;26.30;24.00;;;2.60;99.90;;;;;;5092471;28;20477;-69
2021/01/15 05:35:18;;;;;;;26.83;24.30;;;2.60;99.90;;;;;;5092114;28;20474;-69
2021/01/15 05:37:56;;;;;;;28.97;26.27;;;2.50;99.90;;;;;;5092548;28;20861;-68
2021/01/15 05:40:38;;;;;;;29.13;26.27;;;2.50;99.90;;;;;;5092110;28;20446;-68
2021/01/15 05:43:05;;;;;;;29.23;26.63;;;2.50;99.90;;;;;;5092409;28;20446;-68
2021/01/15 05:45:32;;;;;;;26.77;24.40;;;2.50;99.90;;;;;;5091890;28;20462;-69
2021/01/15 05:47:59;;;;;;;27.60;25.20;;;2.50;99.90;;;;;;5092236;28;20452;-69
2021/01/15 05:50:39;;;;;;;26.67;24.37;;;2.50;99.90;;;;;;5092039;28;20438;-69
2021/01/15 05:53:06;;;;;;;27.63;25.23;;;2.50;99.90;;;;;;5092216;28;20446;-69
2021/01/15 05:55:32;;;;;;;29.03;26.53;;;2.50;99.90;;;;;;5091603;28;20997;-69
2021/01/15 05:58:10;;;;;;;27.37;25.00;;;2.50;99.90;;;;;;5092242;28;20495;-69
2021/01/15 06:00:38;;;;;;;28.90;26.40;;;2.50;99.90;;;;;;5092016;28;20496;-68
2021/01/15 06:03:07;;;;;;;29.00;26.47;;;2.50;99.90;;;;;;5092154;28;20491;-69
2021/01/15 06:05:34;;;;;;;29.80;27.20;;;2.60;99.90;;;;;;5091897;28;20821;-69
2021/01/15 06:08:01;;;;;;;30.43;27.87;;;2.60;99.90;;;;;;5092143;28;20438;-69
2021/01/15 06:10:40;;;;;;;28.73;26.13;;;2.60;99.90;;;;;;5091776;28;20492;-69
2021/01/15 06:13:06;;;;;;;28.87;26.13;;;2.60;99.90;;;;;;5091924;28;20449;-68
2021/01/15 06:15:44;;;;;;;30.33;27.07;;;2.60;99.90;;;;;;5091788;28;20462;-68
2021/01/15 06:18:15;;;;;;;30.50;27.70;;;2.60;99.90;;;;;;5092192;28;20809;-69
2021/01/15 06:20:43;;;;;;;30.90;27.80;;;2.60;99.90;;;;;;5091646;28;20473;-68
2021/01/15 06:23:13;;;;;;;26.97;24.67;;;2.60;99.90;;;;;;5091910;28;20453;-69
2021/01/15 06:28:35;;;;;;;30.30;27.30;;;2.60;99.90;;;;;;5129831;27;21107;-69
2021/01/15 06:31:03;;;;;;;28.90;26.30;;;2.50;99.90;;;;;;5129341;27;20432;-70
2021/01/15 06:33:29;;;;;;;31.70;28.80;;;2.50;99.90;;;;;;5130144;27;20447;-70
2021/01/15 06:35:56;;;;;;;28.53;25.90;;;2.50;99.90;;;;;;5114114;27;20486;-70
2021/01/15 06:38:28;;;;;;;31.50;28.40;;;2.50;99.90;;;;;;5109606;28;20477;-69
2021/01/15 06:40:55;;;;;;;30.87;28.03;;;2.50;99.90;;;;;;5109300;28;20505;-69
2021/01/15 06:43:24;;;;;;;31.07;28.27;;;2.50;99.90;;;;;;5109385;28;20815;-68
2021/01/15 06:45:54;;;;;;;31.70;28.87;;;2.50;99.90;;;;;;5109242;28;20472;-69
2021/01/15 06:48:22;;;;;;;29.33;26.50;;;2.50;99.90;;;;;;5109486;28;20839;-70
2021/01/15 06:50:50;;;;;;;33.00;29.57;;;2.50;99.90;;;;;;5109026;28;20441;-70
2021/01/15 06:53:22;;;;;;;33.03;29.80;;;2.50;99.90;;;;;;5109237;28;20446;-69
2021/01/15 06:55:49;;;;;;;31.67;28.77;;;2.50;99.90;;;;;;5109190;28;20462;-69
2021/01/15 06:58:39;;;;;;;29.00;26.30;;;2.50;99.90;;;;;;5108938;28;20514;-69
2021/01/15 07:01:17;;;;;;;29.83;26.93;;;2.50;99.90;;;;;;5108938;28;20949;-69
2021/01/15 07:04:22;;;;;;;31.13;28.33;;;2.50;99.90;;;;;;5109092;28;21010;-68
2021/01/15 07:07:12;;;;;;;30.43;27.67;;;2.60;99.90;;;;;;5108949;28;20449;-68
2021/01/15 07:09:41;;;;;;;32.67;29.17;;;2.60;99.90;;;;;;5108696;28;20450;-69
2021/01/15 07:12:10;;;;;;;34.03;30.23;;;2.60;99.90;;;;;;5108701;28;20441;-70
2021/01/15 07:14:47;;;;;;;29.20;26.50;;;2.60;99.90;;;;;;5108754;28;20511;-68
2021/01/15 07:17:17;;;;;;;29.47;26.57;;;2.60;99.90;;;;;;5108633;28;20484;-69
2021/01/15 07:19:44;;;;;;;32.10;28.93;;;2.60;99.90;;;;;;5108567;28;20448;-68
2021/01/15 07:22:12;;;;;;;31.90;28.70;;;2.50;99.90;;;;;;5108473;28;20446;-68
2021/01/15 07:24:40;;;;;;;34.87;31.70;;;2.50;99.90;;;;;;5108451;28;20457;-68
2021/01/15 07:27:09;;;;;;;35.03;31.63;;;2.50;99.90;;;;;;5108416;28;20450;-68
2021/01/15 07:29:40;;;;;;;34.57;31.27;;;2.50;99.90;;;;;;5108044;28;20915;-69
2021/01/15 07:32:15;;;;;;;31.33;28.03;;;2.50;99.90;;;;;;5108604;28;20955;-68
2021/01/15 07:34:47;;;;;;;33.90;30.60;;;2.50;99.90;;;;;;5108386;28;20461;-69
2021/01/15 07:37:25;;;;;;;30.50;27.50;;;2.50;99.90;;;;;;5108258;28;20474;-69
2021/01/15 07:40:16;;;;;;;34.70;31.10;;;2.50;99.90;;;;;;5094629;28;20438;-68
2021/01/15 07:42:45;;;;;;;31.93;28.97;;;2.60;99.90;;;;;;5094842;28;20446;-68
2021/01/15 07:45:50;;;;;;;33.03;30.03;;;2.60;99.90;;;;;;5094523;28;20458;-68
2021/01/15 07:48:16;;;;;;;33.27;30.13;;;2.60;99.90;;;;;;5094545;28;20522;-69
2021/01/15 07:50:45;;;;;;;32.43;29.43;;;2.60;99.90;;;;;;5094480;28;20495;-67
2021/01/15 07:53:19;;;;;;;32.77;29.80;;;2.60;99.90;;;;;;5093334;28;20434;-69
2021/01/15 07:55:47;;;;;;;33.47;29.83;;;2.60;99.90;;;;;;5082712;28;20494;-69
2021/01/15 07:58:14;;;;;;;33.40;30.03;;;2.60;99.90;;;;;;5082428;28;20482;-68
2021/01/15 08:00:41;;;;;;;32.10;28.80;;;2.70;99.90;;;;;;5082111;28;20794;-68
2021/01/15 08:03:08;;;;;;;33.60;30.60;;;2.80;99.90;;;;;;5082149;28;20449;-68
2021/01/15 08:05:35;;;;;;;32.17;29.10;;;2.70;99.90;;;;;;5082294;28;20543;-69
2021/01/15 08:08:06;;;;;;;32.63;29.33;;;2.70;99.90;;;;;;5082512;28;21093;-68
2021/01/15 08:10:33;;;;;;;36.27;32.93;;;2.70;99.90;;;;;;5082277;28;20448;-69
2021/01/15 08:12:59;;;;;;;33.67;30.27;;;2.70;99.90;;;;;;5082333;28;20523;-68
2021/01/15 08:15:30;;;;;;;33.07;29.83;;;2.70;99.90;;;;;;5082279;28;20462;-68
2021/01/15 08:17:57;;;;;;;30.90;27.77;;;2.80;99.90;;;;;;5082141;28;20482;-70
2021/01/15 08:20:24;;;;;;;31.75;28.45;;;2.80;99.90;;;;;;5081100;28;20599;-68
2021/01/15 08:22:51;;;;;;;32.42;29.20;;;2.90;99.90;;;;;;5081836;28;20436;-69
2021/01/15 08:25:25;;;;;;;32.90;29.40;;;3.00;99.90;;;;;;5081966;28;20937;-69
2021/01/15 08:27:52;;;;;;;31.40;28.10;;;3.10;99.90;;;;;;5081614;28;20460;-69
2021/01/15 08:30:19;;;;;;;36.50;28.53;;;3.10;99.90;;;;;;5081880;28;20816;-68
2021/01/15 08:32:45;;;;;;;33.30;29.90;;;3.10;99.90;;;;;;5081898;28;21137;-69
2021/01/15 08:35:20;;;;;;;33.25;29.65;;;3.10;99.90;;;;;;5080707;28;20440;-69
2021/01/15 08:37:47;;;;;;;32.13;28.93;;;3.10;99.90;;;;;;5081565;28;20482;-68
2021/01/15 08:40:26;;;;;;;31.87;28.67;;;3.20;99.90;;;;;;5081640;28;20438;-70
2021/01/15 08:42:55;;;;;;;30.77;27.47;;;3.20;99.90;;;;;;5081931;28;20450;-70
2021/01/15 08:45:24;;;;;;;31.00;28.03;;;3.40;99.90;;;;;;5081830;28;20725;-69
2021/01/15 08:47:51;;;;;;;31.30;26.90;;;3.40;99.90;;;;;;5081810;28;20792;-69
2021/01/15 08:50:17;;;;;;;33.50;28.37;;;3.50;99.90;;;;;;5080736;28;20442;-69
2021/01/15 08:52:44;;;;;;;30.60;27.37;;;3.50;99.90;;;;;;5081663;28;20480;-68
2021/01/15 08:55:14;;;;;;;35.67;31.80;;;3.60;99.90;;;;;;5080174;28;20442;-68
2021/01/15 08:57:41;;;;;;;35.70;32.13;;;3.60;99.90;;;;;;5081595;28;20505;-69
2021/01/15 09:00:08;;;;;;;35.60;31.73;;;3.70;99.90;;;;;;5081282;28;20454;-68
2021/01/15 09:02:38;;;;;;;35.00;31.50;;;3.80;99.90;;;;;;5080303;28;20912;-69
2021/01/15 09:05:06;;;;;;;33.20;30.00;;;3.70;99.90;;;;;;5081265;28;20467;-68
2021/01/15 09:07:41;;;;;;;33.23;29.93;;;3.80;99.90;;;;;;5081297;28;20442;-70
2021/01/15 09:10:11;;;;;;;32.47;29.07;;;3.80;99.90;;;;;;5081106;28;20644;-68
2021/01/15 09:12:42;;;;;;;34.00;30.90;;;3.70;99.90;;;;;;5079909;28;20441;-69
2021/01/15 09:15:19;;;;;;;32.93;29.57;;;3.70;99.90;;;;;;5081033;28;20478;-69
2021/01/15 09:17:46;;;;;;;30.53;27.53;;;3.80;99.90;;;;;;5080957;28;20508;-68
2021/01/15 09:20:14;;;;;;;31.77;28.37;;;3.90;99.90;;;;;;5080738;28;21103;-70
2021/01/15 09:22:40;;;;;;;29.60;26.83;;;4.00;99.90;;;;;;5080863;28;20446;-68
2021/01/15 09:25:08;;;;;;;32.37;29.30;;;4.00;99.90;;;;;;5080653;28;20982;-70
2021/01/15 09:27:34;;;;;;;30.70;27.67;;;4.00;99.90;;;;;;5080975;28;20450;-69
2021/01/15 09:30:01;;;;;;;29.20;26.23;;;4.00;99.90;;;;;;5080628;28;20885;-68
2021/01/15 09:32:27;;;;;;;30.47;27.53;;;3.90;99.90;;;;;;5080855;28;20442;-68
2021/01/15 09:34:53;;;;;;;28.60;25.83;;;4.00;99.90;;;;;;5080596;28;20474;-70
2021/01/15 09:37:20;;;;;;;32.13;28.83;;;4.10;99.90;;;;;;5080604;28;20508;-69
2021/01/15 09:39:46;;;;;;;32.23;28.93;;;4.10;99.90;;;;;;5080555;28;20868;-69
2021/01/15 09:42:14;;;;;;;28.97;26.20;;;4.00;99.90;;;;;;5080467;28;20477;-68
2021/01/15 09:44:41;;;;;;;31.90;28.70;;;4.00;99.90;;;;;;5080516;28;20473;-67
2021/01/15 09:47:08;;;;;;;31.70;28.60;;;4.00;99.90;;;;;;5080722;28;20447;-70
2021/01/15 09:49:34;;;;;;;30.17;27.23;;;4.00;99.90;;;;;;5080121;28;21014;-71
2021/01/15 09:52:02;;;;;;;30.30;27.20;;;3.90;99.90;;;;;;5080473;28;20449;-68
2021/01/15 09:54:28;;;;;;;28.93;26.13;;;4.00;99.90;;;;;;5080415;28;20466;-68
2021/01/15 09:56:55;;;;;;;31.03;27.83;;;4.10;99.90;;;;;;5080719;28;20482;-67
2021/01/15 09:59:22;;;;;;;30.37;27.27;;;4.30;99.90;;;;;;5080501;28;20453;-69
2021/01/15 10:01:49;;;;;;;29.45;26.65;;;4.50;99.90;;;;;;5079039;28;20445;-69
2021/01/15 10:04:17;;;;;;;30.77;27.87;;;4.90;99.90;;;;;;5080118;28;20211;-68
2021/01/15 10:06:45;;;;;;;26.60;24.27;;;4.80;99.90;;;;;;5080495;28;20442;-68
2021/01/15 10:09:12;;;;;;;29.27;26.63;;;4.70;99.90;;;;;;5080278;28;20484;-68
2021/01/15 10:11:40;;;;;;;30.43;27.53;;;4.70;99.90;;;;;;5079810;28;20484;-68
2021/01/15 10:14:09;;;;;;;29.63;26.93;;;4.80;99.90;;;;;;5080025;28;20450;-69
2021/01/15 10:16:37;;;;;;;28.17;25.40;;;4.90;99.90;;;;;;5080034;28;20453;-68
2021/01/15 10:19:04;;;;;;;29.50;26.70;;;4.60;99.90;;;;;;5080441;28;20451;-68
2021/01/15 10:21:32;;;;;;;28.93;26.23;;;4.90;99.90;;;;;;5080162;28;20442;-69
2021/01/15 10:23:59;;;;;;;28.70;26.20;;;4.90;99.90;;;;;;5080020;28;20860;-68
2021/01/15 10:26:27;;;;;;;30.40;27.60;;;4.90;99.90;;;;;;5079709;28;20478;-69
2021/01/15 10:28:56;;;;;;;30.67;27.67;;;5.00;99.90;;;;;;5080028;28;20446;-68
2021/01/15 10:31:24;;;;;;;28.90;26.40;;;4.80;99.90;;;;;;5080051;28;21022;-68
2021/01/15 10:33:50;;;;;;;28.97;26.20;;;4.80;99.90;;;;;;5079958;28;20447;-68
2021/01/15 10:36:17;;;;;;;28.30;25.77;;;5.00;99.90;;;;;;5079843;28;20470;-69
2021/01/15 10:38:44;;;;;;;29.77;27.23;;;5.10;99.90;;;;;;5079768;28;20482;-69
2021/01/15 10:41:10;;;;;;;29.33;26.67;;;5.00;99.90;;;;;;5079669;28;21026;-68
2021/01/15 10:43:36;;;;;;;30.27;27.50;;;5.10;99.90;;;;;;5079693;28;20453;-69
2021/01/15 10:46:03;;;;;;;29.23;26.73;;;5.30;99.90;;;;;;5079205;28;20437;-67
2021/01/15 10:48:29;;;;;;;31.20;28.20;;;5.40;99.90;;;;;;5079731;28;20200;-69
2021/01/15 10:50:55;;;;;;;30.23;27.13;;;5.60;99.90;;;;;;5079437;28;20453;-69
2021/01/15 10:53:22;;;;;;;29.00;26.53;;;5.60;99.90;;;;;;5079726;28;20442;-68
2021/01/15 10:55:49;;;;;;;27.70;25.40;;;5.90;99.90;;;;;;5079450;28;20470;-70
2021/01/15 10:58:15;;;;;;;28.20;25.50;;;6.00;99.20;;;;;;5079852;28;20488;-70
2021/01/15 11:00:42;;;;;;;30.23;27.55;;;6.20;98.70;;;;;;5079129;28;20444;-69
2021/01/15 11:03:08;;;;;;;31.20;28.70;;;6.50;98.10;;;;;;5079642;28;20200;-69
2021/01/15 11:05:35;;;;;;;30.33;28.23;;;6.40;96.70;;;;;;5079550;28;20470;-70
2021/01/15 11:08:01;;;;;;;29.50;27.43;;;6.30;96.00;;;;;;5079333;28;21083;-67
2021/01/15 11:10:27;;;;;;;27.47;25.27;;;6.50;96.00;;;;;;5079611;28;20454;-70
2021/01/15 11:12:58;;;;;;;28.97;26.60;;;6.70;95.80;;;;;;5079709;28;20442;-72
2021/01/15 11:15:24;;;;;;;28.30;26.10;;;7.00;95.50;;;;;;5083437;28;20474;-70
2021/01/15 11:17:50;;;;;;;29.43;26.87;;;7.10;94.50;;;;;;5083391;28;20478;-71
2021/01/15 11:20:17;;;;;;;26.60;24.60;;;7.20;93.90;;;;;;5083034;28;20450;-70
2021/01/15 11:22:44;;;;;;;27.20;25.20;;;7.10;92.60;;;;;;5083220;28;20450;-69
2021/01/15 11:25:11;;;;;;;26.60;24.80;;;7.30;92.10;;;;;;5083118;28;21081;-70
2021/01/15 11:27:38;;;;;;;26.60;24.50;;;7.20;90.50;;;;;;5083202;28;20461;-71
2021/01/15 11:30:06;;;;;;;25.67;23.80;;;7.10;90.40;;;;;;5082882;28;20488;-71
2021/01/15 11:32:33;;;;;;;25.33;23.67;;;7.20;91.10;;;;;;5083134;28;20456;-69
2021/01/15 11:34:59;;;;;;;25.30;23.50;;;7.10;89.00;;;;;;5082842;28;20466;-69
2021/01/15 11:37:25;;;;;;;27.17;24.87;;;6.60;86.50;;;;;;5082838;28;20481;-69
2021/01/15 11:39:51;;;;;;;26.37;24.20;;;6.50;87.80;;;;;;5082439;28;20442;-69
2021/01/15 11:42:18;;;;;;;27.70;25.83;;;6.50;88.30;;;;;;5082881;28;20446;-69
2021/01/15 11:44:44;;;;;;;26.77;24.60;;;6.60;89.40;;;;;;5082753;28;20473;-70
2021/01/15 11:47:11;;;;;;;24.80;23.07;;;6.70;89.10;;;;;;5082695;28;20446;-70
2021/01/15 11:49:37;;;;;;;24.97;23.37;;;7.00;88.50;;;;;;5082716;28;20446;-69
2021/01/15 11:52:07;;;;;;;23.17;21.67;;;7.00;86.40;;;;;;5083264;28;20446;-70
2021/01/15 11:54:33;;;;;;;24.77;23.07;;;7.50;85.70;;;;;;5083000;28;20471;-70
2021/01/15 11:57:00;;;;;;;25.20;23.10;;;7.90;83.10;;;;;;5082934;28;20513;-71
2021/01/15 11:59:26;;;;;;;26.40;24.47;;;8.10;78.40;;;;;;5082922;28;20450;-69
2021/01/15 12:01:55;;;;;;;24.23;22.53;;;8.20;76.70;;;;;;5082374;28;20965;-67
2021/01/15 12:04:22;;;;;;;23.17;21.80;;;8.00;75.40;;;;;;5082549;28;20446;-68
2021/01/15 12:06:51;;;;;;;21.73;20.43;;;8.30;74.90;;;;;;5082379;28;20450;-68
2021/01/15 12:09:17;;;;;;;24.07;22.47;;;8.70;74.80;;;;;;5082354;28;21025;-68
2021/01/15 12:11:43;;;;;;;24.37;22.87;;;8.50;71.60;;;;;;5082272;28;21009;-69
2021/01/15 12:14:10;;;;;;;23.33;21.83;;;8.30;71.30;;;;;;5082357;28;20472;-68
2021/01/15 12:16:36;;;;;;;24.50;22.80;;;8.40;70.50;;;;;;5082540;28;20450;-67
2021/01/15 12:19:03;;;;;;;22.23;20.70;;;8.20;69.80;;;;;;5082388;28;20482;-66
2021/01/15 12:21:30;;;;;;;22.60;21.10;;;8.10;70.00;;;;;;5082349;28;20453;-70
2021/01/15 12:23:56;;;;;;;22.17;20.60;;;8.00;70.10;;;;;;5082366;28;20443;-67
2021/01/15 12:26:23;;;;;;;21.50;20.30;;;7.80;69.10;;;;;;5082041;28;20466;-67
2021/01/15 12:28:50;;;;;;;21.50;20.00;;;7.60;68.40;;;;;;5082215;28;20451;-67
2021/01/15 12:31:16;;;;;;;21.40;20.30;;;7.50;68.10;;;;;;5082045;28;20454;-69
2021/01/15 12:33:43;;;;;;;20.53;19.53;;;7.40;67.20;;;;;;5082205;28;20446;-70
2021/01/15 12:36:11;;;;;;;20.60;19.50;;;7.50;67.70;;;;;;5082670;28;20466;-69
2021/01/15 12:38:38;;;;;;;22.33;21.07;;;7.50;67.70;;;;;;5082393;28;20493;-70
2021/01/15 12:41:04;;;;;;;21.17;19.97;;;7.40;67.30;;;;;;5081786;28;20446;-69
2021/01/15 12:43:31;;;;;;;19.20;18.40;;;7.40;67.70;;;;;;5081705;28;20450;-70
2021/01/15 12:45:57;;;;;;;20.43;19.43;;;7.40;66.00;;;;;;5081469;28;20461;-70
2021/01/15 12:48:23;;;;;;;22.37;21.10;;;7.10;65.90;;;;;;5081649;28;20461;-70